Terminal Aerodrome Forecast
Issued by NWS

Home | Current Version | Previous Version | Text Only | Print | Product List | Glossary On
Versions: 1 2 3 4 5 6 7 8 9 10 11 12 13 14 15 16
814
FTAK31 PAJN 252321
TAFAGY
TAF
PAGY 252321Z 2600/2624 21012G20KT P6SM VCSH SCT025 OVC040
     FM260700 21020G30KT P6SM VCSH BKN015 OVC030
     FM261200 20015KT 6SM -RA BKN007 OVC015
     FM261700 20011KT P6SM SCT007 OVC015
      AMD LTD TO CLD VIS AND WIND=

USA.gov is the U.S. government's official web portal to all federal, state and local government web resources and services.